Observation data for Wolfforth on 03/24/2019      Previous  Date  Next       Current Mesonet Observations  Soil Data  Daily Summary Page  Observations in Plain Language
KWOS 240500Z 19006KT 09/M04 A3001 RMK A01 T00921040  RH  039%=      5-min Rain = 0
KWOS 240505Z 19006KT 09/M04 A3001 RMK A01 T00911040  RH  040%=      5-min Rain = 0
KWOS 240510Z 19007KT 09/M04 A3002 RMK A01 T00871039  RH  041%=      5-min Rain = 0
KWOS 240515Z 20007KT 08/M04 A3002 RMK A01 T00831037  RH  043%=      5-min Rain = 0
KWOS 240520Z 20007KT 08/M04 A3002 RMK A01 T00781035  RH  045%=      5-min Rain = 0
KWOS 240525Z 21008KT 08/M04 A3002 RMK A01 T00761037  RH  045%=      5-min Rain = 0
KWOS 240530Z 21008KT 07/M04 A3001 RMK A01 T00741038  RH  045%=      5-min Rain = 0
KWOS 240535Z 21008KT 08/M04 A3001 RMK A01 T00761039  RH  044%=      5-min Rain = 0
KWOS 240540Z 21008KT 08/M04 A3001 RMK A01 T00751039  RH  045%=      5-min Rain = 0
KWOS 240545Z 21008KT 07/M04 A3001 RMK A01 T00721039  RH  045%=      5-min Rain = 0
KWOS 240550Z 21008KT 07/M04 A3001 RMK A01 T00701037  RH  047%=      5-min Rain = 0
KWOS 240555Z 21009KT 07/M04 A3001 RMK A01 T00711035  RH  047%=      5-min Rain = 0
KWOS 240600Z 21008KT 07/M04 A3001 RMK A01 T00721035  RH  047%=      5-min Rain = 0
KWOS 240605Z 21008KT 07/M04 A3001 RMK A01 T00721036  RH  046%=      5-min Rain = 0
KWOS 240610Z 20008KT 08/M04 A3001 RMK A01 T00761037  RH  045%=      5-min Rain = 0
KWOS 240615Z 20008KT 08/M04 A3001 RMK A01 T00781038  RH  044%=      5-min Rain = 0
KWOS 240620Z 19007KT 08/M04 A3001 RMK A01 T00801038  RH  043%=      5-min Rain = 0
KWOS 240625Z 20007KT 09/M04 A3001 RMK A01 T00851040  RH  041%=      5-min Rain = 0
KWOS 240630Z 20007KT 08/M04 A3001 RMK A01 T00821041  RH  042%=      5-min Rain = 0
KWOS 240635Z 20007KT 08/M04 A30 RMK A01 T00781041  RH  043%=      5-min Rain = 0
KWOS 240640Z 20007KT 08/M04 A30 RMK A01 T00771040  RH  043%=      5-min Rain = 0
KWOS 240645Z 20008KT 08/M04 A30 RMK A01 T00751039  RH  044%=      5-min Rain = 0
KWOS 240650Z 20008KT 07/M04 A30 RMK A01 T00741039  RH  045%=      5-min Rain = 0
KWOS 240655Z 21008KT 07/M04 A30 RMK A01 T00731039  RH  045%=      5-min Rain = 0
KWOS 240700Z 21009KT 07/M04 A30 RMK A01 T00721039  RH  045%=      5-min Rain = 0
KWOS 240705Z 20009KT 07/M04 A30 RMK A01 T00701038  RH  046%=      5-min Rain = 0
KWOS 240710Z 20009KT 07/M04 A30 RMK A01 T00701039  RH  046%=      5-min Rain = 0
KWOS 240715Z 20009KT 08/M04 A30 RMK A01 T00771041  RH  043%=      5-min Rain = 0
KWOS 240720Z 20008KT 08/M04 A30 RMK A01 T00761040  RH  044%=      5-min Rain = 0
KWOS 240725Z 20009KT 07/M04 A30 RMK A01 T00731039  RH  045%=      5-min Rain = 0
KWOS 240730Z 20008KT 07/M04 A30 RMK A01 T00681038  RH  047%=      5-min Rain = 0
KWOS 240735Z 21008KT 07/M04 A30 RMK A01 T00651039  RH  048%=      5-min Rain = 0
KWOS 240740Z 20007KT 07/M04 A30 RMK A01 T00651040  RH  047%=      5-min Rain = 0
KWOS 240745Z 21008KT 07/M04 A30 RMK A01 T00691040  RH  046%=      5-min Rain = 0
KWOS 240750Z 22009KT 07/M04 A30 RMK A01 T00661038  RH  048%=      5-min Rain = 0
KWOS 240755Z 22008KT 07/M04 A30 RMK A01 T00691037  RH  047%=      5-min Rain = 0
KWOS 240800Z 22009KT 07/M04 A30 RMK A01 T00681035  RH  048%=      5-min Rain = 0
KWOS 240805Z 23008KT 07/M04 A30 RMK A01 T00691036  RH  047%=      5-min Rain = 0
KWOS 240810Z 24008KT 07/M04 A30 RMK A01 T00701037  RH  047%=      5-min Rain = 0
KWOS 240815Z 24007KT 07/M04 A30 RMK A01 T00711036  RH  047%=      5-min Rain = 0
KWOS 240820Z 24007KT 07/M04 A30 RMK A01 T00681035  RH  048%=      5-min Rain = 0
KWOS 240825Z 29005KT 07/M03 A30 RMK A01 T00661034  RH  049%=      5-min Rain = 0
KWOS 240830Z 27005KT 07/M04 A30 RMK A01 T00651035  RH  049%=      5-min Rain = 0
KWOS 240835Z 27004KT 07/M04 A30 RMK A01 T00661036  RH  049%=      5-min Rain = 0
KWOS 240840Z 29002KT 06/M04 A30 RMK A01 T00611035  RH  050%=      5-min Rain = 0
KWOS 240845Z 28002KT 06/M04 A30 RMK A01 T00591036  RH  051%=      5-min Rain = 0
KWOS 240850Z 30005KT 06/M04 A30 RMK A01 T00561036  RH  052%=      5-min Rain = 0
KWOS 240855Z 30005KT 05/M04 A30 RMK A01 T00541036  RH  053%=      5-min Rain = 0
KWOS 240900Z 31005KT 05/M04 A30 RMK A01 T00531035  RH  053%=      5-min Rain = 0
KWOS 240905Z 31005KT 05/M03 A30 RMK A01 T00501034  RH  055%=      5-min Rain = 0
KWOS 240910Z 31006KT 05/M03 A30 RMK A01 T00481033  RH  056%=      5-min Rain = 0
KWOS 240915Z 31007KT 05/M03 A30 RMK A01 T00471030  RH  058%=      5-min Rain = 0
KWOS 240920Z 30007KT 05/M03 A30 RMK A01 T00471028  RH  059%=      5-min Rain = 0
KWOS 240925Z 29006KT 05/M03 A30 RMK A01 T00491025  RH  059%=      5-min Rain = 0
KWOS 240930Z 29007KT 05/M02 A30 RMK A01 T00501024  RH  059%=      5-min Rain = 0
KWOS 240935Z 30007KT 05/M02 A30 RMK A01 T00511023  RH  059%=      5-min Rain = 0
KWOS 240940Z 30005KT 05/M02 A30 RMK A01 T00491022  RH  060%=      5-min Rain = 0
KWOS 240945Z 31006KT 05/M02 A30 RMK A01 T00481021  RH  061%=      5-min Rain = 0
KWOS 240950Z 32006KT 05/M02 A30 RMK A01 T00451023  RH  062%=      5-min Rain = 0
KWOS 240955Z 32006KT 04/M02 A30 RMK A01 T00421024  RH  062%=      5-min Rain = 0
KWOS 241000Z 34007KT 04/M02 A30 RMK A01 T00411024  RH  063%=      5-min Rain = 0
KWOS 241005Z 33006KT 04/M02 A30 RMK A01 T00401020  RH  066%=      5-min Rain = 0
KWOS 241010Z 33006KT 04/M02 A3001 RMK A01 T00381017  RH  068%=      5-min Rain = 0
KWOS 241015Z 33007KT 04/M01 A3001 RMK A01 T00401010  RH  071%=      5-min Rain = 0
KWOS 241020Z 32007KT 04/M01 A3001 RMK A01 T00411009  RH  071%=      5-min Rain = 0
KWOS 241025Z 32007KT 04/M01 A3001 RMK A01 T00401008  RH  072%=      5-min Rain = 0
KWOS 241030Z 31008KT 04/M01 A3001 RMK A01 T00431006  RH  071%=      5-min Rain = 0
KWOS 241035Z 31007KT 04/M01 A3001 RMK A01 T00431006  RH  071%=      5-min Rain = 0
KWOS 241040Z 29006KT 04/M01 A3001 RMK A01 T00431005  RH  071%=      5-min Rain = 0
KWOS 241045Z 29006KT 04/M01 A3001 RMK A01 T00411008  RH  071%=      5-min Rain = 0
KWOS 241050Z 30006KT 04/M01 A3001 RMK A01 T00421009  RH  071%=      5-min Rain = 0
KWOS 241055Z 29005KT 04/M01 A3001 RMK A01 T00431009  RH  070%=      5-min Rain = 0
KWOS 241100Z 28005KT 04/M01 A3001 RMK A01 T00441011  RH  068%=      5-min Rain = 0
KWOS 241105Z 27004KT 04/M01 A3002 RMK A01 T00421013  RH  068%=      5-min Rain = 0
KWOS 241110Z 29005KT 04/M02 A3002 RMK A01 T00351015  RH  071%=      5-min Rain = 0
KWOS 241115Z 29005KT 04/M01 A3002 RMK A01 T00391013  RH  070%=      5-min Rain = 0
KWOS 241120Z 28005KT 04/M01 A3003 RMK A01 T00411014  RH  068%=      5-min Rain = 0
KWOS 241125Z 29005KT 04/M02 A3002 RMK A01 T00401015  RH  068%=      5-min Rain = 0
KWOS 241130Z 31004KT 04/M01 A3002 RMK A01 T00421013  RH  068%=      5-min Rain = 0
KWOS 241135Z 32005KT 04/M01 A3002 RMK A01 T00431012  RH  068%=      5-min Rain = 0
KWOS 241140Z 33004KT 04/M01 A3003 RMK A01 T00401013  RH  069%=      5-min Rain = 0
KWOS 241145Z 34005KT 04/M02 A3003 RMK A01 T00361016  RH  069%=      5-min Rain = 0
KWOS 241150Z 33005KT 04/M02 A3003 RMK A01 T00361017  RH  069%=      5-min Rain = 0
KWOS 241155Z 30003KT 04/M02 A3003 RMK A01 T00371019  RH  067%=      5-min Rain = 0
KWOS 241200Z 19007KT 03/M02 A3004 RMK A01 T00311020  RH  070%=      5-min Rain = 0
KWOS 241205Z 19004KT 04/M02 A3004 RMK A01 T00361021  RH  066%=      5-min Rain = 0
KWOS 241210Z 23005KT 04/M02 A3005 RMK A01 T00411022  RH  064%=      5-min Rain = 0
KWOS 241215Z 22006KT 05/M02 A3005 RMK A01 T00491019  RH  062%=      5-min Rain = 0
KWOS 241220Z 26006KT 05/M02 A3005 RMK A01 T00501020  RH  061%=      5-min Rain = 0
KWOS 241225Z 26007KT 05/M02 A3005 RMK A01 T00531019  RH  060%=      5-min Rain = 0
KWOS 241230Z 27005KT 05/M02 A3006 RMK A01 T00531019  RH  060%=      5-min Rain = 0
KWOS 241235Z 28005KT 05/M02 A3006 RMK A01 T00511018  RH  061%=      5-min Rain = 0
KWOS 241240Z 31008KT 05/M02 A3006 RMK A01 T00481016  RH  063%=      5-min Rain = 0
KWOS 241245Z 30004KT 05/M02 A3006 RMK A01 T00471015  RH  065%=      5-min Rain = 0
KWOS 241250Z 31005KT 05/M01 A3006 RMK A01 T00491012  RH  065%=      5-min Rain = 0
KWOS 241255Z 32009KT 05/M01 A3006 RMK A01 T00481011  RH  066%=      5-min Rain = 0
KWOS 241300Z 32006KT 05/M01 A3006 RMK A01 T00461011  RH  067%=      5-min Rain = 0
KWOS 241305Z 31004KT 05/M01 A3006 RMK A01 T00451012  RH  067%=      5-min Rain = 0
KWOS 241310Z 32006KT 04/M01 A3006 RMK A01 T00431012  RH  068%=      5-min Rain = 0
KWOS 241315Z 31003KT 04/M01 A3007 RMK A01 T00411012  RH  069%=      5-min Rain = 0
KWOS 241320Z 30003KT 04/M01 A3007 RMK A01 T00421010  RH  070%=      5-min Rain = 0
KWOS 241325Z 29003KT 04/M01 A3007 RMK A01 T00431009  RH  070%=      5-min Rain = 0
KWOS 241330Z 28003KT 04/M01 A3007 RMK A01 T00441007  RH  070%=      5-min Rain = 0
KWOS 241335Z 31005KT 05/M00 A3007 RMK A01 T00471004  RH  070%=      5-min Rain = 0
KWOS 241340Z 30004KT 05/00 A3007 RMK A01 T00520000  RH  070%=      5-min Rain = 0
KWOS 241345Z 31004KT 06/00 A3007 RMK A01 T00560003  RH  070%=      5-min Rain = 0
KWOS 241350Z 32005KT 06/01 A3008 RMK A01 T00580006  RH  070%=      5-min Rain = 0
KWOS 241355Z 32004KT 06/01 A3008 RMK A01 T00610008  RH  070%=      5-min Rain = 0
KWOS 241400Z 32005KT 06/01 A3008 RMK A01 T00630010  RH  070%=      5-min Rain = 0
KWOS 241405Z 33005KT 07/01 A3008 RMK A01 T00650013  RH  070%=      5-min Rain = 0
KWOS 241410Z 33007KT 07/02 A3008 RMK A01 T00680016  RH  070%=      5-min Rain = 0
KWOS 241415Z 34008KT 07/02 A3008 RMK A01 T00720019  RH  070%=      5-min Rain = 0
KWOS 241420Z 35009KT 07/02 A3008 RMK A01 T00720019  RH  070%=      5-min Rain = 0
KWOS 241425Z 35009KT 07/02 A3008 RMK A01 T00720020  RH  071%=      5-min Rain = 0
KWOS 241430Z 35008KT 07/02 A3009 RMK A01 T00730022  RH  071%=      5-min Rain = 0
KWOS 241435Z 00009KT 07/02 A3009 RMK A01 T00740024  RH  072%=      5-min Rain = 0
KWOS 241440Z 00009KT 08/03 A3009 RMK A01 T00750025  RH  072%=      5-min Rain = 0
KWOS 241445Z 00009KT 08/03 A3009 RMK A01 T00760027  RH  072%=      5-min Rain = 0
KWOS 241450Z 01008KT 08/03 A3009 RMK A01 T00800029  RH  071%=      5-min Rain = 0
KWOS 241455Z 00008KT 08/03 A3009 RMK A01 T00820029  RH  071%=      5-min Rain = 0
KWOS 241500Z 01008KT 09/03 A3009 RMK A01 T00850030  RH  070%=      5-min Rain = 0
KWOS 241505Z 00008KT 09/03 A3009 RMK A01 T00860031  RH  070%=      5-min Rain = 0
KWOS 241510Z 00007KT 09/03 A3009 RMK A01 T00880033  RH  069%=      5-min Rain = 0
KWOS 241515Z 35007KT 09/03 A3009 RMK A01 T00910034  RH  069%=      5-min Rain = 0
KWOS 241520Z 35007KT 09/03 A3009 RMK A01 T00910033  RH  068%=      5-min Rain = 0
KWOS 241525Z 35009KT 09/03 A301 RMK A01 T00930034  RH  068%=      5-min Rain = 0
KWOS 241530Z 35008KT 10/04 A301 RMK A01 T00960037  RH  068%=      5-min Rain = 0
KWOS 241535Z 35009KT 10/04 A301 RMK A01 T00970037  RH  067%=      5-min Rain = 0
KWOS 241540Z 35010KT 10/04 A301 RMK A01 T00990038  RH  067%=      5-min Rain = 0
KWOS 241545Z 00010KT 10/04 A301 RMK A01 T01010038  RH  066%=      5-min Rain = 0
KWOS 241550Z 36009KT 10/04 A301 RMK A01 T01030040  RH  066%=      5-min Rain = 0
KWOS 241555Z 36008KT 10/04 A301 RMK A01 T01030041  RH  067%=      5-min Rain = 0
KWOS 241600Z 35008KT 10/04 A301 RMK A01 T01040041  RH  066%=      5-min Rain = 0
KWOS 241605Z 01008KT 11/04 A301 RMK A01 T01090042  RH  065%=      5-min Rain = 0
KWOS 241610Z 01007KT 11/04 A301 RMK A01 T01100040  RH  063%=      5-min Rain = 0
KWOS 241615Z 00007KT 11/04 A301 RMK A01 T01120043  RH  064%=      5-min Rain = 0
KWOS 241620Z 00007KT 12/04 A301 RMK A01 T01150042  RH  062%=      5-min Rain = 0
KWOS 241625Z 35006KT 12/04 A301 RMK A01 T01180044  RH  062%=      5-min Rain = 0
KWOS 241630Z 34008KT 12/04 A301 RMK A01 T01210043  RH  060%=      5-min Rain = 0
KWOS 241635Z 35006KT 12/04 A301 RMK A01 T01210044  RH  060%=      5-min Rain = 0
KWOS 241640Z 35006KT 13/05 A301 RMK A01 T01260047  RH  060%=      5-min Rain = 0
KWOS 241645Z 00006KT 13/05 A301 RMK A01 T01280045  RH  058%=      5-min Rain = 0
KWOS 241650Z 35006KT 13/05 A301 RMK A01 T01300047  RH  058%=      5-min Rain = 0
KWOS 241655Z 36005KT 13/05 A301 RMK A01 T01330046  RH  057%=      5-min Rain = 0
KWOS 241700Z 36004KT 14/05 A301 RMK A01 T01360047  RH  056%=      5-min Rain = 0
KWOS 241705Z 03005KT 14/05 A301 RMK A01 T01410047  RH  054%=      5-min Rain = 0
KWOS 241710Z 01003KT 14/05 A301 RMK A01 T01420046  RH  054%=      5-min Rain = 0
KWOS 241715Z 01005KT 15/05 A301 RMK A01 T01450047  RH  053%=      5-min Rain = 0
KWOS 241720Z 33004KT 15/04 A3011 RMK A01 T01480044  RH  051%=      5-min Rain = 0
KWOS 241725Z 03004KT 15/05 A3011 RMK A01 T01520046  RH  050%=      5-min Rain = 0
KWOS 241730Z 05004KT 16/04 A3011 RMK A01 T01550043  RH  048%=      5-min Rain = 0
KWOS 241735Z 03003KT 16/04 A3011 RMK A01 T01560043  RH  048%=      5-min Rain = 0
KWOS 241740Z 02002KT 16/05 A3011 RMK A01 T01610047  RH  048%=      5-min Rain = 0
KWOS 241745Z 14001KT 17/04 A3011 RMK A01 T01660040  RH  044%=      5-min Rain = 0
KWOS 241750Z 32002KT 17/04 A3011 RMK A01 T01680036  RH  042%=      5-min Rain = 0
KWOS 241755Z 02002KT 17/04 A301 RMK A01 T01660041  RH  044%=      5-min Rain = 0
KWOS 241800Z 11001KT 17/04 A301 RMK A01 T01700037  RH  042%=      5-min Rain = 0
KWOS 241805Z 03002KT 18/04 A301 RMK A01 T01750042  RH  042%=      5-min Rain = 0
KWOS 241810Z 05003KT 17/04 A301 RMK A01 T01740039  RH  042%=      5-min Rain = 0
KWOS 241815Z 05002KT 18/04 A301 RMK A01 T01770039  RH  041%=      5-min Rain = 0
KWOS 241820Z 06002KT 18/03 A301 RMK A01 T01790034  RH  039%=      5-min Rain = 0
KWOS 241825Z 34001KT 18/02 A3009 RMK A01 T01770022  RH  036%=      5-min Rain = 0
KWOS 241830Z 25003KT 18/02 A3009 RMK A01 T01760020  RH  036%=      5-min Rain = 0
KWOS 241835Z 30003KT 18/02 A3009 RMK A01 T01790019  RH  035%=      5-min Rain = 0
KWOS 241840Z 31001KT 18/01 A3009 RMK A01 T01790013  RH  033%=      5-min Rain = 0
KWOS 241845Z 01001KT 18/02 A3009 RMK A01 T01820015  RH  033%=      5-min Rain = 0
KWOS 241850Z 01001KT 19/02 A3008 RMK A01 T01860020  RH  034%=      5-min Rain = 0
KWOS 241855Z 35001KT 19/02 A3008 RMK A01 T01910022  RH  033%=      5-min Rain = 0
KWOS 241900Z 29003KT 20/02 A3008 RMK A01 T01950022  RH  032%=      5-min Rain = 0
KWOS 241905Z 28004KT 19/02 A3008 RMK A01 T01940019  RH  032%=      5-min Rain = 0
KWOS 241910Z 28002KT 20/02 A3008 RMK A01 T01950020  RH  032%=      5-min Rain = 0
KWOS 241915Z 28004KT 20/02 A3008 RMK A01 T02010015  RH  029%=      5-min Rain = 0
KWOS 241920Z 25004KT 20/02 A3008 RMK A01 T01990017  RH  030%=      5-min Rain = 0
KWOS 241925Z 27001KT 20/01 A3008 RMK A01 T02010010  RH  028%=      5-min Rain = 0
KWOS 241930Z 23003KT 20/01 A3007 RMK A01 T02010009  RH  028%=      5-min Rain = 0
KWOS 241935Z 23003KT 20/01 A3007 RMK A01 T02020005  RH  027%=      5-min Rain = 0
KWOS 241940Z 34002KT 20/00 A3007 RMK A01 T02030002  RH  026%=      5-min Rain = 0
KWOS 241945Z 28004KT 20/M00 A3007 RMK A01 T02021001  RH  026%=      5-min Rain = 0
KWOS 241950Z 23002KT 20/00 A3006 RMK A01 T02040001  RH  026%=      5-min Rain = 0
KWOS 241955Z 25004KT 21/M00 A3006 RMK A01 T02061003  RH  025%=      5-min Rain = 0
KWOS 242000Z 29002KT 21/M00 A3006 RMK A01 T02051003  RH  025%=      5-min Rain = 0
KWOS 242005Z 31003KT 21/00 A3006 RMK A01 T02070003  RH  026%=      5-min Rain = 0
KWOS 242010Z 32002KT 21/00 A3006 RMK A01 T02080003  RH  026%=      5-min Rain = 0
KWOS 242015Z 21003KT 21/00 A3006 RMK A01 T02130002  RH  025%=      5-min Rain = 0
KWOS 242020Z 22003KT 22/M01 A3006 RMK A01 T02151006  RH  023%=      5-min Rain = 0
KWOS 242025Z 29002KT 22/00 A3005 RMK A01 T02180001  RH  024%=      5-min Rain = 0
KWOS 242030Z 27006KT 22/M01 A3005 RMK A01 T02151012  RH  022%=      5-min Rain = 0
KWOS 242035Z 24004KT 21/M02 A3005 RMK A01 T02131022  RH  021%=      5-min Rain = 0
KWOS 242040Z 28004KT 22/M02 A3005 RMK A01 T02151018  RH  021%=      5-min Rain = 0
KWOS 242045Z 27005KT 22/M02 A3005 RMK A01 T02161019  RH  021%=      5-min Rain = 0
KWOS 242050Z 28003KT 22/M02 A3005 RMK A01 T02181022  RH  020%=      5-min Rain = 0
KWOS 242055Z 31001KT 22/M02 A3005 RMK A01 T02191019  RH  020%=      5-min Rain = 0
KWOS 242100Z 28006KT 22/M01 A3005 RMK A01 T02181007  RH  023%=      5-min Rain = 0
KWOS 242105Z 25004KT 21/M01 A3005 RMK A01 T02141013  RH  022%=      5-min Rain = 0
KWOS 242110Z 31005KT 21/M00 A3005 RMK A01 T02141003  RH  024%=      5-min Rain = 0
KWOS 242115Z 31006KT 22/01 A3005 RMK A01 T02170005  RH  025%=      5-min Rain = 0
KWOS 242120Z 29005KT 22/00 A3005 RMK A01 T02180001  RH  024%=      5-min Rain = 0
KWOS 242125Z 29006KT 22/00 A3005 RMK A01 T02200004  RH  024%=      5-min Rain = 0
KWOS 242130Z 32004KT 22/M00 A3005 RMK A01 T02161004  RH  023%=      5-min Rain = 0
KWOS 242135Z 33004G9KT 22/M01 A3005 RMK A01 T02161008  RH  023%=      5-min Rain = 0
KWOS 242140Z 27006KT 22/M02 A3005 RMK A01 T02221017  RH  020%=      5-min Rain = 0
KWOS 242145Z 30005KT 22/M02 A3005 RMK A01 T02221018  RH  020%=      5-min Rain = 0
KWOS 242150Z 29007G12KT 22/M02 A3005 RMK A01 T02231021  RH  020%=      5-min Rain = 0
KWOS 242155Z 28006KT 22/M03 A3005 RMK A01 T02201027  RH  019%=      5-min Rain = 0
KWOS 242200Z 31006KT 22/M02 A3005 RMK A01 T02211020  RH  020%=      5-min Rain = 0
KWOS 242205Z 29006KT 22/M03 A3005 RMK A01 T02181025  RH  020%=      5-min Rain = 0
KWOS 242210Z 29006G11KT 22/M02 A3005 RMK A01 T02191023  RH  020%=      5-min Rain = 0
KWOS 242215Z 30007KT 22/M02 A3005 RMK A01 T02221017  RH  020%=      5-min Rain = 0
KWOS 242220Z 31006KT 22/M01 A3005 RMK A01 T02231014  RH  021%=      5-min Rain = 0
KWOS 242225Z 29007G13KT 23/M01 A3005 RMK A01 T02251010  RH  021%=      5-min Rain = 0
KWOS 242230Z 29008KT 23/M01 A3005 RMK A01 T02261008  RH  021%=      5-min Rain = 0
KWOS 242235Z 29010G15KT 23/M01 A3005 RMK A01 T02291005  RH  021%=      5-min Rain = 0
KWOS 242240Z 28008KT 23/M01 A3005 RMK A01 T02281005  RH  021%=      5-min Rain = 0
KWOS 242245Z 31008KT 23/M01 A3004 RMK A01 T02281005  RH  021%=      5-min Rain = 0
KWOS 242250Z 30008G13KT 22/M00 A3004 RMK A01 T02241004  RH  022%=      5-min Rain = 0
KWOS 242255Z 30004KT 22/M00 A3004 RMK A01 T02241002  RH  023%=      5-min Rain = 0
KWOS 242300Z 34008KT 22/00 A3004 RMK A01 T02220002  RH  024%=      5-min Rain = 0
KWOS 242305Z 35009KT 22/00 A3004 RMK A01 T02230001  RH  023%=      5-min Rain = 0
KWOS 242310Z 34009KT 22/00 A3004 RMK A01 T02240003  RH  023%=      5-min Rain = 0
KWOS 242315Z 34008KT 22/00 A3004 RMK A01 T02230002  RH  023%=      5-min Rain = 0
KWOS 242320Z 34007KT 22/00 A3004 RMK A01 T02230001  RH  023%=      5-min Rain = 0
KWOS 242325Z 34009KT 22/00 A3004 RMK A01 T02230001  RH  023%=      5-min Rain = 0
KWOS 242330Z 34007KT 22/00 A3004 RMK A01 T02220004  RH  024%=      5-min Rain = 0
KWOS 242335Z 34006KT 22/00 A3004 RMK A01 T02220002  RH  023%=      5-min Rain = 0
KWOS 242340Z 34004KT 22/01 A3004 RMK A01 T02230005  RH  024%=      5-min Rain = 0
KWOS 242345Z 34005KT 22/00 A3004 RMK A01 T02230004  RH  024%=      5-min Rain = 0
KWOS 242350Z 31005KT 22/00 A3003 RMK A01 T02240001  RH  023%=      5-min Rain = 0
KWOS 242355Z 31004KT 22/M00 A3003 RMK A01 T02241004  RH  022%=      5-min Rain = 0
KWOS 250000Z 32004KT 23/M00 A3003 RMK A01 T02251002  RH  022%=      5-min Rain = 0
KWOS 250005Z 33004KT 22/M00 A3004 RMK A01 T02231001  RH  023%=      5-min Rain = 0
KWOS 250010Z 34005KT 22/00 A3004 RMK A01 T02220001  RH  023%=      5-min Rain = 0
KWOS 250015Z 35005KT 22/00 A3004 RMK A01 T02200000  RH  023%=      5-min Rain = 0
KWOS 250020Z 36004KT 22/00 A3004 RMK A01 T02190002  RH  024%=      5-min Rain = 0
KWOS 250025Z 03004KT 22/01 A3004 RMK A01 T02170007  RH  025%=      5-min Rain = 0
KWOS 250030Z 01004KT 22/01 A3004 RMK A01 T02160006  RH  025%=      5-min Rain = 0
KWOS 250035Z 36004KT 22/00 A3004 RMK A01 T02150004  RH  025%=      5-min Rain = 0
KWOS 250040Z 03004KT 21/01 A3004 RMK A01 T02130007  RH  026%=      5-min Rain = 0
KWOS 250045Z 04004KT 21/01 A3004 RMK A01 T02100008  RH  026%=      5-min Rain = 0
KWOS 250050Z 04004KT 21/01 A3004 RMK A01 T02070009  RH  027%=      5-min Rain = 0
KWOS 250055Z 05004KT 20/01 A3004 RMK A01 T02030009  RH  028%=      5-min Rain = 0
KWOS 250100Z 06003KT 20/01 A3004 RMK A01 T01970009  RH  029%=      5-min Rain = 0
KWOS 250105Z 07003KT 19/01 A3004 RMK A01 T01910010  RH  030%=      5-min Rain = 0
KWOS 250110Z 08004KT 19/01 A3004 RMK A01 T01860009  RH  031%=      5-min Rain = 0
KWOS 250115Z 08003KT 18/01 A3004 RMK A01 T01820009  RH  032%=      5-min Rain = 0
KWOS 250120Z 08003KT 18/01 A3004 RMK A01 T01800008  RH  032%=      5-min Rain = 0
KWOS 250125Z 07003KT 18/01 A3005 RMK A01 T01800007  RH  032%=      5-min Rain = 0
KWOS 250130Z 08004KT 17/01 A3005 RMK A01 T01740007  RH  033%=      5-min Rain = 0
KWOS 250135Z 08005KT 17/01 A3005 RMK A01 T01670005  RH  034%=      5-min Rain = 0
KWOS 250140Z 10005KT 16/01 A3005 RMK A01 T01600006  RH  036%=      5-min Rain = 0
KWOS 250145Z 11005KT 16/01 A3005 RMK A01 T01570008  RH  037%=      5-min Rain = 0
KWOS 250150Z 10004KT 16/01 A3005 RMK A01 T01630010  RH  036%=      5-min Rain = 0
KWOS 250155Z 09004KT 17/01 A3005 RMK A01 T01690008  RH  034%=      5-min Rain = 0
KWOS 250200Z 10004KT 17/01 A3005 RMK A01 T01710007  RH  033%=      5-min Rain = 0
KWOS 250205Z 12005KT 17/01 A3005 RMK A01 T01680008  RH  034%=      5-min Rain = 0
KWOS 250210Z 12006KT 17/01 A3006 RMK A01 T01650008  RH  035%=      5-min Rain = 0
KWOS 250215Z 13005KT 16/01 A3006 RMK A01 T01640007  RH  035%=      5-min Rain = 0
KWOS 250220Z 13006KT 16/01 A3006 RMK A01 T01620005  RH  035%=      5-min Rain = 0
KWOS 250225Z 13006KT 16/01 A3006 RMK A01 T01590006  RH  036%=      5-min Rain = 0
KWOS 250230Z 13007KT 15/01 A3006 RMK A01 T01540006  RH  037%=      5-min Rain = 0
KWOS 250235Z 13006KT 15/00 A3006 RMK A01 T01510004  RH  037%=      5-min Rain = 0
KWOS 250240Z 13007KT 15/00 A3006 RMK A01 T01500002  RH  037%=      5-min Rain = 0
KWOS 250245Z 14007KT 15/00 A3007 RMK A01 T01490002  RH  037%=      5-min Rain = 0
KWOS 250250Z 14008KT 15/00 A3007 RMK A01 T01460001  RH  037%=      5-min Rain = 0
KWOS 250255Z 15009KT 15/00 A3007 RMK A01 T01480000  RH  037%=      5-min Rain = 0
KWOS 250300Z 15007KT 15/00 A3007 RMK A01 T015000-0  RH  036%=      5-min Rain = 0
KWOS 250305Z 15006KT 15/00 A3007 RMK A01 T015100-0  RH  036%=      5-min Rain = 0
KWOS 250310Z 15008KT 15/M00 A3008 RMK A01 T01511002  RH  035%=      5-min Rain = 0
KWOS 250315Z 15007KT 15/M00 A3008 RMK A01 T01531003  RH  035%=      5-min Rain = 0
KWOS 250320Z 15007KT 15/M00 A3008 RMK A01 T01531002  RH  035%=      5-min Rain = 0
KWOS 250325Z 15006KT 15/M00 A3008 RMK A01 T01501003  RH  036%=      5-min Rain = 0
KWOS 250330Z 15006KT 15/M00 A3008 RMK A01 T01461003  RH  036%=      5-min Rain = 0
KWOS 250335Z 15006KT 15/M01 A3009 RMK A01 T01461005  RH  036%=      5-min Rain = 0
KWOS 250340Z 14005KT 14/M01 A3009 RMK A01 T01421008  RH  036%=      5-min Rain = 0
KWOS 250345Z 14005KT 14/M01 A3009 RMK A01 T01361008  RH  037%=      5-min Rain = 0
KWOS 250350Z 14005KT 14/M01 A3009 RMK A01 T01351007  RH  038%=      5-min Rain = 0
KWOS 250355Z 15006KT 13/M01 A3009 RMK A01 T01291006  RH  040%=      5-min Rain = 0
KWOS 250400Z 15007KT 13/M01 A3009 RMK A01 T01251005  RH  041%=      5-min Rain = 0
KWOS 250405Z 15007KT 12/M01 A301 RMK A01 T01211007  RH  042%=      5-min Rain = 0
KWOS 250410Z 15005KT 12/M01 A301 RMK A01 T01221007  RH  041%=      5-min Rain = 0
KWOS 250415Z 14006KT 12/M01 A301 RMK A01 T01171009  RH  042%=      5-min Rain = 0
KWOS 250420Z 12005KT 11/M01 A301 RMK A01 T01071012  RH  044%=      5-min Rain = 0
KWOS 250425Z 10004KT 10/M01 A3011 RMK A01 T01031008  RH  046%=      5-min Rain = 0
KWOS 250430Z 11003KT 10/M01 A3011 RMK A01 T01031009  RH  046%=      5-min Rain = 0
KWOS 250435Z 20001KT 11/M01 A3012 RMK A01 T01071007  RH  045%=      5-min Rain = 0
KWOS 250440Z 29000KT 10/M01 A3012 RMK A01 T01041007  RH  046%=      5-min Rain = 0
KWOS 250445Z 30002KT 11/M01 A3012 RMK A01 T01081007  RH  045%=      5-min Rain = 0
KWOS 250450Z 29003KT 10/M01 A3012 RMK A01 T00971010  RH  048%=      5-min Rain = 0
KWOS 250455Z 18003G9KT 10/M01 A3012 RMK A01 T01011009  RH  047%=      5-min Rain = 0

Page generated in 0.0177 seconds.